Terminal Aerodrome Forecast
Issued by NWS

Home | Current Version | Previous Version | Text Only | Print | Product List | Glossary On
Versions: 1 2 3 4 5 6 7 8 9 10 11
000
FTUS46 KSEW 131124
TAFPAE
TAF
KPAE 131124Z 1312/1412 35005KT P6SM SKC
      TEMPO 1312/1316 2SM BR BKN002
     FM141100 04006KT 1/2SM FG VV002=

USA.gov is the U.S. government's official web portal to all federal, state and local government web resources and services.